createdAt,value
2019-04-23T00:01:14.787Z,11.80
2019-04-23T00:02:40.791Z,11.80
2019-04-23T00:03:52.068Z,11.80
2019-04-23T00:04:52.807Z,11.70
2019-04-23T00:06:17.002Z,11.70
2019-04-23T00:07:15.808Z,11.70
2019-04-23T00:08:20.087Z,11.80
2019-04-23T00:10:30.348Z,11.70
2019-04-23T00:11:44.518Z,11.70
2019-04-23T00:12:58.385Z,11.70
2019-04-23T00:13:50.312Z,11.70
2019-04-23T00:15:04.493Z,11.70
2019-04-23T00:17:18.060Z,11.70
2019-04-23T00:18:28.172Z,11.70
2019-04-23T00:19:24.882Z,11.80
2019-04-23T00:20:25.729Z,11.70
2019-04-23T00:21:55.079Z,11.70
2019-04-23T00:23:11.100Z,11.70
2019-04-23T00:24:52.215Z,11.70
2019-04-23T00:26:03.961Z,11.70
2019-04-23T00:27:15.631Z,11.70
2019-04-23T00:29:18.558Z,11.70
2019-04-23T00:30:38.200Z,11.70
2019-04-23T00:33:46.157Z,11.60
2019-04-23T00:34:54.726Z,11.70
2019-04-23T00:35:59.706Z,11.70
2019-04-23T00:37:12.478Z,11.70
2019-04-23T00:38:16.713Z,11.70
2019-04-23T00:39:17.276Z,11.70
2019-04-23T00:40:25.835Z,11.70
2019-04-23T00:41:30.888Z,11.70
2019-04-23T00:42:38.415Z,11.70
2019-04-23T00:43:43.218Z,11.70
2019-04-23T00:45:48.692Z,11.70
2019-04-23T00:46:54.636Z,11.70
2019-04-23T00:48:09.271Z,11.70
2019-04-23T00:49:10.794Z,11.70
2019-04-23T00:50:41.360Z,11.70
2019-04-23T00:51:23.908Z,11.70
2019-04-23T00:53:35.708Z,11.70
2019-04-23T00:54:50.066Z,11.70
2019-04-23T00:55:47.687Z,11.70
2019-04-23T00:58:06.259Z,11.60
2019-04-23T00:59:05.405Z,11.60
2019-04-23T01:00:19.272Z,11.60
2019-04-23T01:01:19.897Z,11.60
2019-04-23T01:02:31.145Z,11.60
2019-04-23T01:03:26.782Z,11.60
2019-04-23T01:04:45.364Z,11.60
2019-04-23T01:05:41.008Z,11.50
2019-04-23T01:06:54.908Z,11.50
2019-04-23T01:07:58.219Z,11.50
2019-04-23T01:09:03.726Z,11.50
2019-04-23T01:10:25.621Z,11.50
2019-04-23T01:11:23.978Z,11.50
2019-04-23T01:12:38.408Z,11.50
2019-04-23T01:14:41.466Z,11.50
2019-04-23T01:15:54.256Z,11.40
2019-04-23T01:16:55.030Z,11.40
2019-04-23T01:18:18.675Z,11.40
2019-04-23T01:19:18.862Z,11.40
2019-04-23T01:20:40.637Z,11.30
2019-04-23T01:21:24.606Z,11.30
2019-04-23T01:22:31.574Z,11.30
2019-04-23T01:23:54.923Z,11.30
2019-04-23T01:25:09.779Z,11.30
2019-04-23T01:26:29.611Z,11.30
2019-04-23T01:28:00.746Z,11.30
2019-04-23T01:28:47.932Z,11.30
2019-04-23T01:29:58.540Z,11.20
2019-04-23T01:31:03.710Z,11.20
2019-04-23T01:32:08.565Z,11.20
2019-04-23T01:33:18.424Z,11.20
2019-04-23T01:34:28.018Z,11.20
2019-04-23T01:35:28.793Z,11.10
2019-04-23T01:36:44.685Z,11.20
2019-04-23T01:38:46.146Z,11.20
2019-04-23T01:39:52.832Z,11.20
2019-04-23T01:40:53.844Z,11.20
2019-04-23T01:42:04.112Z,11.10
2019-04-23T01:43:10.838Z,11.10
2019-04-23T01:44:14.344Z,11.10
2019-04-23T01:46:28.932Z,11.10
2019-04-23T01:47:39.032Z,11.10
2019-04-23T01:48:42.080Z,11.20
2019-04-23T01:49:56.465Z,11.10
2019-04-23T01:50:54.544Z,11.20
2019-04-23T01:52:01.672Z,11.20
2019-04-23T01:53:08.657Z,11.20
2019-04-23T01:54:09.523Z,11.20
2019-04-23T01:56:25.950Z,11.20
2019-04-23T01:57:30.649Z,11.20
2019-04-23T01:59:46.192Z,11.20
2019-04-23T02:00:47.506Z,11.20
2019-04-23T02:03:01.132Z,11.10
2019-04-23T02:04:11.281Z,11.20
2019-04-23T02:05:23.187Z,11.10
2019-04-23T02:06:20.520Z,11.10
2019-04-23T02:07:29.939Z,11.10
2019-04-23T02:08:28.017Z,11.10
2019-04-23T02:09:43.449Z,11.10
2019-04-23T02:10:51.336Z,11.10
2019-04-23T02:11:53.826Z,11.10
2019-04-23T02:13:03.169Z,11.10
2019-04-23T02:14:03.722Z,11.10
2019-04-23T02:15:14.053Z,11.10
2019-04-23T02:16:10.203Z,11.10
2019-04-23T02:17:24.926Z,11.00
2019-04-23T02:18:42.562Z,11.00
2019-04-23T02:19:42.365Z,11.00
2019-04-23T02:20:46.135Z,11.00
2019-04-23T02:22:18.099Z,11.00
2019-04-23T02:23:31.215Z,11.00
2019-04-23T02:24:41.286Z,10.90
2019-04-23T02:25:50.372Z,10.90
2019-04-23T02:27:05.184Z,10.90
2019-04-23T02:28:06.031Z,10.90
2019-04-23T02:29:14.140Z,10.90
2019-04-23T02:30:36.146Z,11.00
2019-04-23T02:32:31.960Z,10.90
2019-04-23T02:34:57.695Z,10.90
2019-04-23T02:36:55.013Z,10.90
2019-04-23T02:41:19.288Z,10.80
2019-04-23T02:43:01.666Z,10.80
2019-04-23T02:44:50.698Z,10.80
2019-04-23T02:45:54.583Z,10.70
2019-04-23T02:46:56.790Z,10.70
2019-04-23T02:48:01.828Z,10.70
2019-04-23T02:49:12.449Z,10.70
2019-04-23T02:51:10.855Z,10.70
2019-04-23T02:53:37.627Z,10.70
2019-04-23T02:57:50.363Z,10.70
2019-04-23T02:59:05.613Z,10.70
2019-04-23T03:03:44.115Z,10.70
2019-04-23T03:04:37.194Z,10.70
2019-04-23T03:07:49.575Z,10.70
2019-04-23T03:09:58.790Z,10.70
2019-04-23T03:12:20.124Z,10.70
2019-04-23T03:13:30.805Z,10.60
2019-04-23T03:14:26.775Z,10.60
2019-04-23T03:15:50.701Z,10.60
2019-04-23T03:18:42.087Z,10.60
2019-04-23T03:19:52.348Z,10.60
2019-04-23T03:21:24.067Z,10.60
2019-04-23T03:23:31.888Z,10.50
2019-04-23T03:24:55.469Z,10.40
2019-04-23T03:26:08.540Z,10.40
2019-04-23T03:28:25.269Z,10.40
2019-04-23T03:32:30.238Z,10.40
2019-04-23T03:34:56.403Z,10.30
2019-04-23T03:38:41.670Z,10.30
2019-04-23T03:39:50.437Z,10.20
2019-04-23T03:40:37.313Z,10.20
2019-04-23T03:41:50.762Z,10.20
2019-04-23T03:43:01.315Z,10.20
2019-04-23T03:43:51.475Z,10.20
2019-04-23T03:45:27.891Z,10.20
2019-04-23T03:48:41.620Z,10.20
2019-04-23T03:49:33.305Z,10.20
2019-04-23T03:50:35.845Z,10.20
2019-04-23T03:51:42.827Z,10.20
2019-04-23T03:54:05.030Z,10.20
2019-04-23T03:55:06.162Z,10.20
2019-04-23T03:56:18.900Z,10.20
2019-04-23T03:58:28.180Z,10.20
2019-04-23T04:01:34.745Z,10.20
2019-04-23T04:04:20.672Z,10.30
2019-04-23T04:05:14.418Z,10.30
2019-04-23T04:06:15.414Z,10.30
2019-04-23T04:07:18.558Z,10.30
2019-04-23T04:10:31.607Z,10.40
2019-04-23T04:11:25.773Z,10.40
2019-04-23T04:12:46.338Z,10.50
2019-04-23T04:13:50.820Z,10.50
2019-04-23T04:14:54.414Z,10.50
2019-04-23T04:16:01.299Z,10.50
2019-04-23T04:17:12.399Z,10.50
2019-04-23T04:19:25.170Z,10.50
2019-04-23T04:20:33.164Z,10.60
2019-04-23T04:22:47.109Z,10.60
2019-04-23T04:23:42.764Z,10.60
2019-04-23T04:26:02.247Z,10.60
2019-04-23T04:27:05.648Z,10.70
2019-04-23T04:29:10.830Z,10.70
2019-04-23T04:30:22.136Z,10.70
2019-04-23T04:31:30.986Z,10.70
2019-04-23T04:32:31.600Z,10.70
2019-04-23T04:33:49.015Z,10.70
2019-04-23T04:35:54.417Z,10.70
2019-04-23T04:38:16.511Z,10.60
2019-04-23T04:39:02.901Z,10.60
2019-04-23T04:40:23.586Z,10.60
2019-04-23T04:41:25.657Z,10.60
2019-04-23T04:44:42.692Z,10.70
2019-04-23T04:45:52.102Z,10.70
2019-04-23T04:46:49.993Z,10.70
2019-04-23T04:49:05.541Z,10.70
2019-04-23T04:50:19.252Z,10.70
2019-04-23T04:51:20.727Z,10.70
2019-04-23T04:52:34.250Z,10.70
2019-04-23T04:53:47.417Z,10.70
2019-04-23T04:54:22.743Z,10.80
2019-04-23T04:56:43.064Z,10.80
2019-04-23T04:57:56.686Z,10.80
2019-04-23T05:00:10.410Z,10.90
2019-04-23T05:03:25.971Z,11.00
2019-04-23T05:08:54.473Z,11.10
2019-04-23T05:11:07.776Z,11.20
2019-04-23T05:15:25.434Z,11.40
2019-04-23T05:16:34.581Z,11.40
2019-04-23T05:18:00.328Z,11.40
2019-04-23T05:19:03.552Z,11.40
2019-04-23T05:20:16.976Z,11.40
2019-04-23T05:21:16.056Z,11.40
2019-04-23T05:22:17.085Z,11.50
2019-04-23T05:24:33.276Z,11.50
2019-04-23T05:25:31.766Z,11.50
2019-04-23T05:26:38.319Z,11.50
2019-04-23T05:27:53.557Z,11.50
2019-04-23T05:30:02.833Z,11.60
2019-04-23T05:31:21.689Z,11.60
2019-04-23T05:32:23.730Z,11.70
2019-04-23T05:34:38.143Z,11.70
2019-04-23T05:36:52.034Z,11.70
2019-04-23T05:38:22.342Z,11.80
2019-04-23T05:39:08.313Z,11.80
2019-04-23T05:40:30.663Z,11.80
2019-04-23T05:42:37.910Z,11.90
2019-04-23T05:43:40.886Z,11.90
2019-04-23T05:45:49.650Z,11.90
2019-04-23T05:47:04.259Z,12.00
2019-04-23T05:48:13.252Z,12.00
2019-04-23T05:50:30.501Z,12.00
2019-04-23T05:52:31.295Z,12.10
2019-04-23T05:53:40.768Z,12.10
2019-04-23T05:54:46.495Z,12.10
2019-04-23T05:55:47.602Z,12.10
2019-04-23T05:56:53.921Z,12.10
2019-04-23T05:58:16.576Z,12.20
2019-04-23T05:59:06.675Z,12.20
2019-04-23T06:00:07.599Z,12.20
2019-04-23T06:02:35.297Z,12.30
2019-04-23T06:03:44.485Z,12.30
2019-04-23T06:04:43.146Z,12.30
2019-04-23T06:06:01.206Z,12.40
2019-04-23T06:08:03.430Z,12.40
2019-04-23T06:09:08.034Z,12.50
2019-04-23T06:10:14.999Z,12.50
2019-04-23T06:11:28.120Z,12.50
2019-04-23T06:12:26.673Z,12.50
2019-04-23T06:13:35.911Z,12.50
2019-04-23T06:14:47.464Z,12.60
2019-04-23T06:15:44.029Z,12.60
2019-04-23T06:18:02.001Z,12.70
2019-04-23T06:19:10.580Z,12.70
2019-04-23T06:20:24.969Z,12.80
2019-04-23T06:21:18.821Z,12.80
2019-04-23T06:22:28.925Z,12.80
2019-04-23T06:23:36.511Z,12.90
2019-04-23T06:24:39.802Z,12.90
2019-04-23T06:26:15.588Z,12.90
2019-04-23T06:27:58.088Z,13.00
2019-04-23T06:29:05.365Z,13.00
2019-04-23T06:30:03.978Z,13.00
2019-04-23T06:32:23.144Z,13.10
2019-04-23T06:33:27.302Z,13.10
2019-04-23T06:34:31.387Z,13.10
2019-04-23T06:35:43.825Z,13.10
2019-04-23T06:36:46.680Z,13.10
2019-04-23T06:38:28.093Z,13.20
2019-04-23T06:40:00.409Z,13.20
2019-04-23T06:41:11.722Z,13.20
2019-04-23T06:42:36.074Z,13.30
2019-04-23T06:43:24.088Z,13.30
2019-04-23T06:44:32.328Z,13.30
2019-04-23T06:45:37.445Z,13.30
2019-04-23T06:46:50.579Z,13.40
2019-04-23T06:47:54.171Z,13.40
2019-04-23T06:48:58.992Z,13.40
2019-04-23T06:49:58.195Z,13.50
2019-04-23T06:51:15.988Z,13.50
2019-04-23T06:53:19.728Z,13.50
2019-04-23T06:54:36.310Z,13.60
2019-04-23T06:55:35.765Z,13.60
2019-04-23T06:56:56.288Z,13.60
2019-04-23T06:57:48.170Z,13.60
2019-04-23T06:58:50.449Z,13.70
2019-04-23T06:59:59.269Z,13.70
2019-04-23T07:01:04.933Z,13.70
2019-04-23T07:02:11.825Z,13.70
2019-04-23T07:03:23.240Z,13.70
2019-04-23T07:04:30.028Z,13.70
2019-04-23T07:05:53.470Z,13.80
2019-04-23T07:07:19.520Z,13.80
2019-04-23T07:08:02.765Z,13.80
2019-04-23T07:09:13.139Z,13.90
2019-04-23T07:12:45.917Z,13.90
2019-04-23T07:13:40.182Z,14.00
2019-04-23T07:14:44.547Z,14.00
2019-04-23T07:15:58.570Z,14.00
2019-04-23T07:16:52.854Z,14.00
2019-04-23T07:17:54.319Z,14.00
2019-04-23T07:20:11.622Z,14.00
2019-04-23T07:21:18.326Z,14.10
2019-04-23T07:24:33.138Z,14.20
2019-04-23T07:25:40.373Z,14.20
2019-04-23T07:26:52.847Z,14.20
2019-04-23T07:27:47.392Z,14.20
2019-04-23T07:30:10.363Z,14.30
2019-04-23T07:31:19.163Z,14.30
2019-04-23T07:32:32.558Z,14.30
2019-04-23T07:33:27.915Z,14.30
2019-04-23T07:34:23.246Z,14.30
2019-04-23T07:35:30.505Z,14.40
2019-04-23T07:36:44.635Z,14.40
2019-04-23T07:37:57.187Z,14.40
2019-04-23T07:39:19.102Z,14.50
2019-04-23T07:41:54.916Z,14.50
2019-04-23T07:43:03.302Z,14.60
2019-04-23T07:44:46.660Z,14.60
2019-04-23T07:46:10.379Z,14.70
2019-04-23T07:47:43.560Z,14.80
2019-04-23T07:48:27.634Z,14.80
2019-04-23T07:49:56.550Z,14.80
2019-04-23T07:50:49.435Z,14.90
2019-04-23T07:52:01.267Z,15.00
2019-04-23T07:53:08.920Z,15.00
2019-04-23T07:54:09.530Z,15.10
2019-04-23T07:55:19.327Z,15.10
2019-04-23T07:56:27.916Z,15.20
2019-04-23T07:59:43.930Z,15.30
2019-04-23T08:00:45.579Z,15.30
2019-04-23T08:01:52.367Z,15.30
2019-04-23T08:02:58.324Z,15.30
2019-04-23T08:04:01.837Z,15.30
2019-04-23T08:05:15.667Z,15.30
2019-04-23T08:06:13.489Z,15.30
2019-04-23T08:07:21.271Z,15.30
2019-04-23T08:08:39.672Z,15.30
2019-04-23T08:09:43.424Z,15.30
2019-04-23T08:10:46.602Z,15.40
2019-04-23T08:12:02.897Z,15.40
2019-04-23T08:12:56.279Z,15.40
2019-04-23T08:13:56.976Z,15.40
2019-04-23T08:15:13.076Z,15.40
2019-04-23T08:16:25.993Z,15.50
2019-04-23T08:17:16.125Z,15.50
2019-04-23T08:18:27.633Z,15.50
2019-04-23T08:19:36.846Z,15.60
2019-04-23T08:20:35.310Z,15.60
2019-04-23T08:21:39.742Z,15.60
2019-04-23T08:22:48.037Z,15.60
2019-04-23T08:25:35.094Z,15.70
2019-04-23T08:26:59.671Z,15.70
2019-04-23T08:28:13.646Z,15.70
2019-04-23T08:29:27.638Z,15.70
2019-04-23T08:30:28.897Z,15.70
2019-04-23T08:31:40.291Z,15.70
2019-04-23T08:32:27.784Z,15.80
2019-04-23T08:33:49.979Z,15.80
2019-04-23T08:34:57.792Z,15.80
2019-04-23T08:35:58.882Z,15.80
2019-04-23T08:37:04.951Z,15.90
2019-04-23T08:39:18.270Z,16.00
2019-04-23T08:40:19.902Z,16.00
2019-04-23T08:41:36.019Z,16.00
2019-04-23T08:43:54.841Z,16.00
2019-04-23T08:48:20.637Z,16.10
2019-04-23T08:50:29.679Z,16.10
2019-04-23T08:51:57.058Z,16.10
2019-04-23T08:52:37.010Z,16.20
2019-04-23T08:53:42.423Z,16.20
2019-04-23T08:54:56.820Z,16.20
2019-04-23T08:56:12.023Z,16.20
2019-04-23T08:58:14.359Z,16.30
2019-04-23T08:59:25.389Z,16.30
2019-04-23T09:00:31.451Z,16.40
2019-04-23T09:01:48.009Z,16.40
2019-04-23T09:02:55.215Z,16.40
2019-04-23T09:03:55.959Z,16.40
2019-04-23T09:04:56.834Z,16.40
2019-04-23T09:07:04.485Z,16.50
2019-04-23T09:08:19.269Z,16.50
2019-04-23T09:09:12.733Z,16.60
2019-04-23T09:10:22.825Z,16.60
2019-04-23T09:11:41.659Z,16.60
2019-04-23T09:14:44.979Z,16.70
2019-04-23T09:15:51.779Z,16.70
2019-04-23T09:17:02.482Z,16.80
2019-04-23T09:18:04.260Z,16.80
2019-04-23T09:20:23.446Z,16.80
2019-04-23T09:21:22.130Z,16.80
2019-04-23T09:22:38.625Z,16.90
2019-04-23T09:23:45.136Z,16.90
2019-04-23T09:24:41.525Z,16.90
2019-04-23T09:25:47.760Z,16.90
2019-04-23T09:26:56.351Z,16.90
2019-04-23T09:28:16.113Z,16.90
2019-04-23T09:31:45.596Z,17.00
2019-04-23T09:32:40.200Z,17.00
2019-04-23T09:33:58.358Z,17.00
2019-04-23T09:35:26.029Z,17.00
2019-04-23T09:36:41.925Z,17.00
2019-04-23T09:38:07.073Z,17.00
2019-04-23T09:39:34.753Z,17.00
2019-04-23T09:41:15.172Z,17.00
2019-04-23T09:42:27.964Z,17.00
2019-04-23T09:43:38.570Z,17.00
2019-04-23T09:45:26.925Z,17.10
2019-04-23T09:46:23.481Z,17.10
2019-04-23T09:50:23.538Z,17.30
2019-04-23T09:51:32.776Z,17.40
2019-04-23T09:52:42.594Z,17.40
2019-04-23T09:53:33.822Z,17.40
2019-04-23T09:54:51.348Z,17.50
2019-04-23T09:56:01.173Z,17.50
2019-04-23T09:56:52.275Z,17.60
2019-04-23T09:59:15.686Z,17.60
2019-04-23T10:00:22.934Z,17.60
2019-04-23T10:02:28.234Z,17.70
2019-04-23T10:03:26.930Z,17.70
2019-04-23T10:04:31.935Z,17.70
2019-04-23T10:05:33.626Z,17.70
2019-04-23T10:06:36.210Z,17.80
2019-04-23T10:07:47.019Z,17.80
2019-04-23T10:08:50.006Z,17.80
2019-04-23T10:09:51.320Z,17.90
2019-04-23T10:10:57.386Z,17.90
2019-04-23T10:12:03.111Z,17.90
2019-04-23T10:13:08.342Z,17.90
2019-04-23T10:14:14.485Z,18.00
2019-04-23T10:15:25.015Z,18.00
2019-04-23T10:16:29.757Z,18.00
2019-04-23T10:17:31.927Z,18.10
2019-04-23T10:18:37.337Z,18.10
2019-04-23T10:19:42.714Z,18.20
2019-04-23T10:20:48.631Z,18.20
2019-04-23T10:21:53.418Z,18.20
2019-04-23T10:22:57.801Z,18.20
2019-04-23T10:24:03.375Z,18.20
2019-04-23T10:25:08.878Z,18.20
2019-04-23T10:26:14.235Z,18.20
2019-04-23T10:27:18.923Z,18.20
2019-04-23T10:28:31.658Z,18.20
2019-04-23T10:29:38.457Z,18.20
2019-04-23T10:30:42.978Z,18.20
2019-04-23T10:31:47.445Z,18.30
2019-04-23T10:32:51.806Z,18.30
2019-04-23T10:33:57.809Z,18.30
2019-04-23T10:35:14.653Z,18.30
2019-04-23T10:36:13.046Z,18.30
2019-04-23T10:37:15.562Z,18.40
2019-04-23T10:38:21.873Z,18.40
2019-04-23T10:39:31.758Z,18.50
2019-04-23T10:40:38.041Z,18.50
2019-04-23T10:41:40.542Z,18.50
2019-04-23T10:42:47.581Z,18.50
2019-04-23T10:43:56.706Z,18.50
2019-04-23T10:45:27.198Z,18.50
2019-04-23T10:46:53.696Z,18.60
2019-04-23T10:49:48.996Z,18.70
2019-04-23T10:50:51.366Z,18.80
2019-04-23T10:54:30.926Z,18.90
2019-04-23T10:55:27.163Z,18.90
2019-04-23T10:56:36.112Z,18.90
2019-04-23T10:57:32.579Z,19.00
2019-04-23T10:58:38.650Z,19.00
2019-04-23T10:59:49.046Z,19.00
2019-04-23T11:00:59.282Z,19.00
2019-04-23T11:02:23.959Z,19.00
2019-04-23T11:03:31.818Z,19.00
2019-04-23T11:04:34.245Z,19.00
2019-04-23T11:05:30.423Z,19.10
2019-04-23T11:06:45.292Z,19.10
2019-04-23T11:08:55.920Z,19.10
2019-04-23T11:10:03.311Z,19.20
2019-04-23T11:11:07.919Z,19.20
2019-04-23T11:12:37.118Z,19.30
2019-04-23T11:13:49.753Z,19.30
2019-04-23T11:14:41.941Z,19.50
2019-04-23T11:15:58.681Z,19.60
2019-04-23T11:16:57.225Z,19.70
2019-04-23T11:17:52.116Z,19.90
2019-04-23T11:19:07.790Z,20.10
2019-04-23T11:21:27.419Z,20.70
2019-04-23T11:22:42.563Z,21.20
2019-04-23T11:23:28.833Z,21.60
2019-04-23T11:24:44.156Z,22.00
2019-04-23T11:25:50.432Z,22.50
2019-04-23T11:27:07.873Z,23.10
2019-04-23T11:29:20.902Z,24.00
2019-04-23T11:30:25.879Z,24.50
2019-04-23T11:31:35.248Z,24.70
2019-04-23T11:32:46.762Z,25.00
2019-04-23T11:33:39.240Z,25.30
2019-04-23T11:35:08.757Z,25.50
2019-04-23T11:36:03.545Z,25.80
2019-04-23T11:38:23.640Z,26.40
2019-04-23T11:40:15.722Z,26.90
2019-04-23T11:41:26.347Z,27.20
2019-04-23T11:42:28.071Z,27.60
2019-04-23T11:43:32.776Z,27.90
2019-04-23T11:44:41.965Z,28.20
2019-04-23T11:45:54.041Z,28.40
2019-04-23T11:48:22.099Z,29.00
2019-04-23T11:49:34.641Z,29.20
2019-04-23T11:50:39.687Z,29.40
2019-04-23T11:52:32.832Z,29.40
2019-04-23T11:53:35.640Z,29.50
2019-04-23T11:55:44.824Z,29.70
2019-04-23T11:57:14.365Z,29.80
2019-04-23T11:58:16.985Z,30.00
2019-04-23T11:59:25.856Z,30.10
2019-04-23T12:00:06.123Z,30.30
2019-04-23T12:01:42.238Z,30.50
2019-04-23T12:03:07.442Z,30.80
2019-04-23T12:04:51.735Z,31.00
2019-04-23T12:08:57.343Z,31.60
2019-04-23T12:10:23.533Z,31.70
2019-04-23T12:11:54.541Z,31.70
2019-04-23T12:12:44.679Z,31.70
2019-04-23T12:17:04.163Z,32.10
2019-04-23T12:18:02.883Z,32.30
2019-04-23T12:19:35.660Z,32.40
2019-04-23T12:21:31.347Z,32.90
2019-04-23T12:22:29.814Z,32.90
2019-04-23T12:25:56.742Z,33.60
2019-04-23T12:27:56.439Z,33.70
2019-04-23T12:29:13.281Z,33.80
2019-04-23T12:30:20.336Z,34.00
2019-04-23T12:31:29.264Z,34.20
2019-04-23T12:33:36.106Z,34.70
2019-04-23T12:34:49.338Z,34.90
2019-04-23T12:35:38.987Z,35.20
2019-04-23T12:36:50.929Z,35.40
2019-04-23T12:38:00.725Z,35.30
2019-04-23T12:39:11.274Z,35.30
2019-04-23T12:41:21.132Z,35.40
2019-04-23T12:42:48.913Z,35.60
2019-04-23T12:43:50.333Z,35.60
2019-04-23T12:44:51.702Z,35.50
2019-04-23T12:45:42.499Z,35.40
2019-04-23T12:46:57.647Z,35.30
2019-04-23T12:49:27.687Z,35.10
2019-04-23T12:50:38.075Z,34.90
2019-04-23T12:51:26.366Z,34.90
2019-04-23T12:52:37.930Z,34.80
2019-04-23T12:53:38.276Z,34.80
2019-04-23T12:57:09.077Z,35.00
2019-04-23T12:57:57.551Z,34.90
2019-04-23T12:59:01.822Z,34.80
2019-04-23T13:00:18.720Z,34.80
2019-04-23T13:01:13.781Z,34.80
2019-04-23T13:02:33.426Z,35.00
2019-04-23T13:03:29.789Z,35.10
2019-04-23T13:04:41.593Z,35.30
2019-04-23T13:05:34.117Z,35.50
2019-04-23T13:06:44.212Z,35.60
2019-04-23T13:07:52.075Z,35.50
2019-04-23T13:09:02.803Z,35.40
2019-04-23T13:10:21.070Z,35.50
2019-04-23T13:11:14.142Z,35.70
2019-04-23T13:12:33.061Z,35.80
2019-04-23T13:14:39.519Z,36.00
2019-04-23T13:15:34.285Z,36.10
2019-04-23T13:16:54.062Z,36.00
2019-04-23T13:20:01.426Z,36.10
2019-04-23T13:21:36.342Z,36.00
2019-04-23T13:22:21.425Z,36.10
2019-04-23T13:23:22.150Z,36.20
2019-04-23T13:24:48.759Z,36.20
2019-04-23T13:27:12.021Z,36.10
2019-04-23T13:28:14.087Z,36.00
2019-04-23T13:29:32.933Z,36.00
2019-04-23T13:30:31.613Z,35.70
2019-04-23T13:31:30.127Z,35.70
2019-04-23T13:32:38.991Z,35.80
2019-04-23T13:33:43.871Z,35.80
2019-04-23T13:34:58.844Z,35.80
2019-04-23T13:36:01.064Z,35.80
2019-04-23T13:36:59.764Z,35.90
2019-04-23T13:38:38.885Z,35.70
2019-04-23T13:39:18.469Z,35.80
2019-04-23T13:40:24.728Z,35.90
2019-04-23T13:42:40.340Z,35.90
2019-04-23T13:43:40.465Z,35.90
2019-04-23T13:44:46.731Z,36.00
2019-04-23T13:46:59.988Z,36.20
2019-04-23T13:49:07.952Z,35.80
2019-04-23T13:51:25.709Z,35.50
2019-04-23T13:52:59.844Z,35.50
2019-04-23T13:55:42.869Z,35.00
2019-04-23T13:57:23.915Z,35.00
2019-04-23T13:58:07.222Z,34.90
2019-04-23T13:59:15.649Z,34.80
2019-04-23T14:00:20.593Z,34.70
2019-04-23T14:01:26.243Z,34.70
2019-04-23T14:07:28.012Z,35.20
2019-04-23T14:08:33.530Z,35.20
2019-04-23T14:09:41.322Z,35.10
2019-04-23T14:10:39.717Z,34.90
2019-04-23T14:11:51.523Z,34.90
2019-04-23T14:13:10.796Z,35.00
2019-04-23T14:13:56.713Z,35.10
2019-04-23T14:15:04.890Z,35.20
2019-04-23T14:16:13.790Z,35.10
2019-04-23T14:18:43.328Z,35.20
2019-04-23T14:19:22.578Z,35.10
2019-04-23T14:20:34.803Z,34.90
2019-04-23T14:21:44.525Z,34.90
2019-04-23T14:23:00.009Z,34.90
2019-04-23T14:24:08.256Z,34.90
2019-04-23T14:25:08.073Z,34.90
2019-04-23T14:26:20.748Z,35.00
2019-04-23T14:27:14.343Z,35.00
2019-04-23T14:28:21.701Z,34.90
2019-04-23T14:29:32.458Z,34.90
2019-04-23T14:31:38.884Z,34.70
2019-04-23T14:32:45.741Z,34.60
2019-04-23T14:34:01.343Z,34.50
2019-04-23T14:35:08.544Z,34.40
2019-04-23T14:36:05.770Z,34.20
2019-04-23T14:38:23.452Z,33.90
2019-04-23T14:39:27.409Z,33.70
2019-04-23T14:41:36.301Z,33.70
2019-04-23T14:42:44.907Z,33.80
2019-04-23T14:43:48.710Z,33.80
2019-04-23T14:45:08.202Z,33.80
2019-04-23T14:47:24.059Z,33.80
2019-04-23T14:50:46.924Z,33.70
2019-04-23T14:51:51.593Z,33.70
2019-04-23T14:53:08.159Z,33.70
2019-04-23T14:54:22.941Z,33.60
2019-04-23T14:55:40.196Z,33.50
2019-04-23T14:57:35.179Z,33.50
2019-04-23T14:58:31.464Z,33.50
2019-04-23T14:59:29.015Z,33.50
2019-04-23T15:01:49.770Z,33.40
2019-04-23T15:03:02.989Z,33.30
2019-04-23T15:04:10.895Z,33.40
2019-04-23T15:05:13.164Z,33.60
2019-04-23T15:07:22.333Z,34.00
2019-04-23T15:08:32.852Z,34.10
2019-04-23T15:09:36.133Z,34.10
2019-04-23T15:10:41.706Z,34.10
2019-04-23T15:12:50.574Z,34.10
2019-04-23T15:13:53.863Z,34.00
2019-04-23T15:15:10.022Z,34.00
2019-04-23T15:17:17.803Z,33.90
2019-04-23T15:18:35.257Z,33.80
2019-04-23T15:19:58.069Z,33.80
2019-04-23T15:21:28.330Z,33.70
2019-04-23T15:22:16.610Z,33.40
2019-04-23T15:23:33.350Z,33.10
2019-04-23T15:25:53.145Z,33.20
2019-04-23T15:28:30.208Z,33.70
2019-04-23T15:29:48.451Z,33.90
2019-04-23T15:31:17.931Z,34.10
2019-04-23T15:32:09.947Z,34.20
2019-04-23T15:33:27.997Z,34.30
2019-04-23T15:34:30.971Z,34.30
2019-04-23T15:37:58.279Z,34.40
2019-04-23T15:39:04.127Z,34.40
2019-04-23T15:40:05.806Z,34.50
2019-04-23T15:41:07.412Z,34.60
2019-04-23T15:42:10.878Z,34.60
2019-04-23T15:45:28.892Z,34.50
2019-04-23T15:46:39.305Z,34.20
2019-04-23T15:47:45.323Z,33.70
2019-04-23T15:48:57.664Z,32.90
2019-04-23T15:51:04.145Z,31.10
2019-04-23T15:52:07.345Z,30.50
2019-04-23T15:53:05.942Z,30.30
2019-04-23T15:54:35.394Z,30.20
2019-04-23T15:55:22.487Z,29.90
2019-04-23T15:56:35.910Z,29.50
2019-04-23T15:57:54.123Z,29.00
2019-04-23T15:59:00.176Z,28.50
2019-04-23T16:00:02.275Z,28.00
2019-04-23T16:01:15.352Z,27.40
2019-04-23T16:01:51.048Z,26.80
2019-04-23T16:02:55.375Z,26.10
2019-04-23T16:04:01.231Z,25.70
2019-04-23T16:05:08.540Z,25.20
2019-04-23T16:06:16.545Z,24.80
2019-04-23T16:07:39.091Z,24.50
2019-04-23T16:09:05.372Z,24.30
2019-04-23T16:10:04.242Z,24.10
2019-04-23T16:11:17.153Z,23.90
2019-04-23T16:12:04.694Z,23.60
2019-04-23T16:13:37.403Z,23.40
2019-04-23T16:15:30.927Z,23.10
2019-04-23T16:16:39.801Z,22.90
2019-04-23T16:17:41.998Z,22.80
2019-04-23T16:18:58.968Z,22.60
2019-04-23T16:21:26.574Z,22.30
2019-04-23T16:22:18.547Z,22.10
2019-04-23T16:23:28.035Z,22.00
2019-04-23T16:24:26.569Z,21.90
2019-04-23T16:25:38.703Z,21.90
2019-04-23T16:26:55.822Z,21.80
2019-04-23T16:27:49.153Z,21.80
2019-04-23T16:29:19.048Z,21.70
2019-04-23T16:31:20.978Z,21.60
2019-04-23T16:32:22.861Z,21.60
2019-04-23T16:33:16.554Z,21.50
2019-04-23T16:35:15.632Z,21.50
2019-04-23T16:36:12.703Z,21.40
2019-04-23T16:37:16.954Z,21.40
2019-04-23T16:38:34.270Z,21.40
2019-04-23T16:39:22.062Z,21.30
2019-04-23T16:41:39.966Z,21.30
2019-04-23T16:42:49.372Z,21.30
2019-04-23T16:45:07.494Z,21.30
2019-04-23T16:46:07.220Z,21.30
2019-04-23T16:47:26.472Z,21.40
2019-04-23T16:48:26.258Z,21.40
2019-04-23T16:52:46.300Z,21.40
2019-04-23T16:53:47.044Z,21.40
2019-04-23T16:54:54.941Z,21.40
2019-04-23T16:56:04.771Z,21.40
2019-04-23T16:58:22.612Z,21.40
2019-04-23T17:01:24.979Z,21.60
2019-04-23T17:02:34.134Z,21.50
2019-04-23T17:04:53.030Z,21.70
2019-04-23T17:05:57.827Z,22.00
2019-04-23T17:07:08.421Z,22.40
2019-04-23T17:08:32.594Z,22.70
2019-04-23T17:09:09.470Z,22.90
2019-04-23T17:10:19.206Z,22.90
2019-04-23T17:12:25.108Z,22.80
2019-04-23T17:13:37.599Z,22.60
2019-04-23T17:14:41.574Z,22.50
2019-04-23T17:16:49.388Z,22.30
2019-04-23T17:18:03.503Z,22.20
2019-04-23T17:19:10.405Z,22.10
2019-04-23T17:20:19.768Z,21.90
2019-04-23T17:21:16.836Z,21.80
2019-04-23T17:22:24.901Z,21.60
2019-04-23T17:23:39.690Z,21.50
2019-04-23T17:24:46.052Z,21.40
2019-04-23T17:25:41.761Z,21.20
2019-04-23T17:27:09.302Z,21.10
2019-04-23T17:28:03.593Z,21.00
2019-04-23T17:29:09.800Z,20.80
2019-04-23T17:30:11.998Z,20.70
2019-04-23T17:32:38.579Z,20.50
2019-04-23T17:33:49.674Z,20.40
2019-04-23T17:35:19.197Z,20.20
2019-04-23T17:36:49.541Z,20.10
2019-04-23T17:38:00.734Z,20.00
2019-04-23T17:39:07.810Z,19.90
2019-04-23T17:40:17.727Z,19.80
2019-04-23T17:43:20.658Z,19.70
2019-04-23T17:45:30.777Z,19.40
2019-04-23T17:46:32.334Z,19.40
2019-04-23T17:47:35.502Z,19.30
2019-04-23T17:48:48.020Z,19.30
2019-04-23T17:51:07.970Z,19.10
2019-04-23T17:53:17.819Z,19.00
2019-04-23T17:54:17.887Z,18.90
2019-04-23T17:55:22.276Z,18.80
2019-04-23T17:56:39.313Z,18.80
2019-04-23T17:57:36.834Z,18.70
2019-04-23T17:58:40.890Z,18.70
2019-04-23T18:00:08.450Z,18.60
2019-04-23T18:03:40.012Z,18.40
2019-04-23T18:04:43.710Z,18.40
2019-04-23T18:05:51.463Z,18.30
2019-04-23T18:06:55.802Z,18.30
2019-04-23T18:07:59.395Z,18.30
2019-04-23T18:10:24.961Z,18.20
2019-04-23T18:11:27.896Z,18.20